Aviation Digital Data Service (ADDS)

Output produced by METARs form (0324 UTC 21 September 2017)
found at http://www.aviationweather.gov/adds/metars/
 
TAF MMCS 201729Z 2018/2118 26010KT P6SM SCT030 
     BECMG 2102/2103 00000KT 
     FM211500 32010KT P6SM SKC
       
TAF MMAA 202251Z 2100/2206 26010KT P6SM SCT015 BKN080 OVC100 TX30/2120Z TN23/2112Z 
     TEMPO 2100/2104 4SM TSRA BKN015CB 
     FM210400 34005KT 5SM -TSRA SCT015CB OVC080 
     TEMPO 2113/2117 3SM TSRA 
     FM211700 22010KT 5SM -RA SCT015 BKN080 BKN250 
     TEMPO 2121/2201 3SM TSRA OVC015CB 
     FM220100 16005KT 5SM -RA SCT015CB BKN050 OVC080
       
TAF MMAN 201729Z 2018/2118 04015KT P6SM BKN020 
     FM202100 08015KT P6SM BKN015CB BKN090 
     TEMPO 2021/2101 5SM TSRA 
     BECMG 2103/2104 00000KT 
     FM210600 00000KT P6SM SCT010 BKN230 
     FM211500 03010KT 5SM HZ SCT015 SCT080
       
TAF MMAS 201625Z 2018/2118 06010KT P6SM SCT040 
     FM210300 09005KT P6SM SCT090 BKN220 
     FM211600 11006KT P6SM SCT220
       
TAF MMBT 201615Z 2018/2118 08010KT 6SM HZ SCT020 BKN090 BKN200 
     BECMG 2022/2023 5SM -RA BKN020CB 
     TEMPO 2100/2104 2SM TSRA OVC010CB 
     FM210600 09005KT 6SM HZ BKN020 OVC090 
     FM211500 25006KT 6SM HZ BKN015 OVC080
       
TAF MMCB 201615Z 2018/2118 20008KT P6SM SCT020 BKN080 BKN200 
     BECMG 2021/2022 6SM -RA BKN015CB 
     TEMPO 2100/2104 3SM TSRA 
     FM210600 00000KT 6SM HZ BKN015 OVC070 
     TEMPO 2110/2114 3SM -RA BR BKN010OVC070 
     FM211600 16006KT P6SM BKN020 BKN080 BKN200
       
TAF MMCE 201646Z 2018/2118 35012KT P6SM SCT020 BKN280 
     BECMG 2100/2101 BKN020CB 
     TEMPO 2101/2105 2SM TSRA BKN010CB OVC080 
     FM210700 13010KT 6SM HZ BKN015 BKN280 
     FM211500 12010KT P6SM SCT015 BKN300
       
TAF MMCL 201711Z 2018/2118 20015KT P6SM SCT020 SCT230 
     FM210200 22015KT P6SM SCT030CB BKN120 BKN250 
     FM211500 25001KT P6SM SCT100 BKN250
       
TAF MMCM 201646Z 2018/2118 10010KT P6SM SCT020 
     FM210300 08008KT P6SM SCT015 
     TEMPO 2110/2114 BKN010 
     FM211500 10010KT P6SM SCT020
       
TAF MMCN 201632Z 2018/2118 25010KT P6SM SCT030 
     FM210300 35005KT P6SM SKC 
     FM211600 30006KT P6SM SKC
       
TAF MMCP 201646Z 2018/2118 35015KT P6SM SCT015 SCT300 
     FM210100 12010KT P6SM BKN015CB BKN300 
     TEMPO 2102/2106 4SM TSRA 
     FM210600 12010KT 6SM HZ BKN015 
     FM211500 09010KT P6SM SCT020 BKN300
       
TAF MMCS 201729Z 2018/2118 26010KT P6SM SCT030 
     BECMG 2102/2103 00000KT 
     FM211500 32010KT P6SM SKC
       
TAF MMCU 201729Z 2018/2118 34015KT P6SM SCT040 SCT230 
     FM202100 02015KT P6SM BKN035CB BKN120 
     TEMPO 2023/2103 6SM TSRA 
     BECMG 2104/2105 00000KT 
     FM210900 00000KT P6SM SCT100 BKN250 
     FM211500 12001KT P6SM BKN250
       
TAF MMCV 201654Z 2018/2118 15015KT P6SM SCT030 SCT250 
     FM210300 16005KT P6SM SCT015 
     TEMPO 2110/2114 3SM BR HZ 
     FM211500 15010KT P6SM SCT020 SCT250
       
TAF MMCZ 202309Z 2100/2206 10015KT P6SM SCT015 SCT080 
     FM210300 12010KT P6SM BKN015CB BKN080 
     TEMPO 2103/2107 4SM TSRA 
     FM211000 00000KT P6SM SCT020CB BKN100 BKN250 
     FM211800 16015KT P6SM BKN020CB OVC100 
     TEMPO 2122/2202 4SM TSRA
       
TAF MMDO 201632Z 2018/2118 06010KT P6SM SCT020 BKN080 BKN200 
     BECMG 2020/2021 BKN020CB 
     TEMPO 2022/2102 4SM TSRA 
     FM210600 00000KT 6SM HZ SCT020 BKN080 OVC140 
     FM211500 10010KT P6SM SCT140
       
TAF MMEP 201625Z 2018/2118 33008KT P6SM BKN015 BKN250 
     BECMG 2101/2102 00000KT BKN010 OVC015 
     FM211100 00000KT 1SM DZ BR BKN004 OVC010 
     FM211430 27005KT 3SM BR OVC010 
     FM211530 30006KT 6SM HZ BKN015 BKN200
       
TAF MMGL 202306Z 2100/2206 24005KT P6SM SCT020 BKN300 TX28/2122Z TN16/2112Z 
     TEMPO 2100/2104 4SM TSRA BKN020CB 
     FM210400 09005KT P6SM SCT020 BKN090 BKN250 
     FM211700 13005KT 5SM HZ SCT025 BKN250 
     TEMPO 2123/2203 3SM TSRA OVC020CB 
     FM220300 22005KT 5SM -TSRA SCT020CB BKN050 OVC090
       
TAF MMGM 201632Z 2018/2118 25010KT P6SM SCT020 
     FM210300 30005KT P6SM SKC 
     FM211600 26008KT P6SM SKC
       
TAF MMHO 201711Z 2018/2118 14015KT P6SM SCT035 
     BECMG 2102/2103 00000KT 
     FM211500 16010KT P6SM SCT100 SCT250
       
TAF MMIA 201625Z 2018/2118 23010KT P6SM SCT020 BKN250 
     BECMG 2020/2021 BKN020CB 
     TEMPO 2022/2102 4SM TSRA OVC015CB 
     FM210400 06005KT 5SM -RA BKN015 OVC070 
     TEMPO 2110/2114 3SM -RA BR OVC010 
     FM211600 20006KT P6SM BKN015 BKN070
       
TAF COR MMIO 210010Z 2018/2118 03015KT P6SM SCT020 SCT100 
     FM210000 06015KT P6SM BKN025CB BKN120 
     TEMPO 2100/2104 5SM TSRA 
     FM210600 00000KT P6SM SCT100 BKN240 
     FM211500 12010KT P6SM SCT025 BKN250
       
TAF MMLM 201632Z 2018/2118 26010KT P6SM SKC 
     FM210300 30006KT P6SM SKC 
     FM211600 30012KT P6SM SKC
       
TAF MMLO 201625Z 2018/2118 07010KT P6SM SCT030 SCT220 
     FM210300 07005KT P6SM SKC 
     TEMPO 2110/2114 6SM HZ BKN015 
     FM211600 09006KT P6SM SCT080
       
TAF MMLP 201711Z 2018/2118 03015KT P6SM SCT040 
     BECMG 2102/2103 00000KT 
     FM211500 10010KT P6SM SCT230
       
TAF MMLT 201632Z 2018/2118 15008KT P6SM SKC 
     FM210300 20006KT P6SM SKC 
     FM211600 26006KT P6SM SCT250
       
TAF MMMA 201654Z 2018/2118 25015KT P6SM BKN025 BKN250 
     FM210300 14010KT 6SM HZ SCT015 BKN200 
     TEMPO 2111/2115 4SM HZ BKN010 
     FM211500 15015KT P6SM BKN020
       
TAF MMMD 202309Z 2100/2206 03015KT P6SM BKN020CB BKN100 TX34/2120Z TN25/2112Z 
     TEMPO 2101/2105 3SM TSRA 
     BECMG 2106/2107 10010KT 
     FM210900 00000KT P6SM SCT015CB BKN100 BKN250 
     FM211600 M14010KT P6SM SCT025 BKN250 
     FM212000 12015KT P6SM OVC015CB 
     TEMPO 2120/2124 5SM TSRA
       
TAF MMML 201711Z 2018/2118 20015KT P6SM SKC 
     BECMG 2102/2103 00000KT 
     FM211500 25010KT P6SM SKC
       
TAF COR MMMM 210057Z 2100/2206 06005KT P6SM BKN020CB BKN120 
     TEMPO 2101/2105 5SM TSRA 
     FM211600 19005KT 5SM HZ SCT020 BKN250 
     TEMPO 2201/2204 3SM TSRA OVC010CB 
     FM220400 19005KT 5SM RA BKN015CB OVC070
       
TAF MMMT 201646Z 2018/2118 36010KT P6SM BKN020 BKN250 
     FM210200 00000KT 6SM -RA HZ BKN015 BKN070 BKN250 
     TEMPO 2102/2106 4SM TSRA BKN010CB OVC070 
     FM211000 24005KT 3SM BR BKN010 OVC030 
     FM211500 26006KT P6SM BKN020 BKN300
       
TAF MMMV 200503Z 2006/2106 02005KT 6SM HZ SCT030 
     FM201800 13010KT P6SM SCT040 
     FM210300 13005KT 6SM HZ SKC
       
TAF MMMX 202251Z 2100/2206 11010KT P6SM SCT020 OVC080 TX26/2121Z TN14/2112Z 
     TEMPO 2100/2104 5SM TSRA BKN020CB 
     FM210400 13005KT 5SM -RA SCT020 OVC080 
     BECMG 2108/2109 4SM HZ FU 
     FM211800 05010KT P6SM SCT020 BKN250 
     TEMPO 2123/2203 2SM TSRA OVC020CB 
     FM220300 05005KT 4SM TSRA BKN015CB OVC070
       
TAF MMMY 202311Z 2100/2206 10015KT P6SM BKN020CB OVC120 TX35/2120Z TN24/2112Z 
     TEMPO 2101/2105 5SM TSRA 
     BECMG 2106/2107 12010KT 
     FM210900 00000KT 4SM HZ OVC015 
     FM211600 14010KT 5SM HZ SCT015 BKN080
       
TAF MMMZ 202300Z 2100/2206 32010KT P6SM BKN015CB BKN120 TX32/2120Z TN25/2112Z 
     TEMPO 2103/2107 4SM TSRA 
     BECMG 2108/2109 03010KT 
     FM211500 23010KT P6SM VC SH SCT020CB BKN120 BKN250 
     FM211800 26010KT P6SM SCT030 BKN230 
     TEMPO 2122/2202 6SM TSRA BKN030CB
       
TAF MMNL 201654Z 2018/2118 14012KT P6SM SCT030 BKN220 
     FM210300 14008KT P6SM SCT220 
     FM211500 14012KT P6SM SKC
       
TAF MMOX 201615Z 2018/2118 13008KT P6SM BKN020 BKN080 BKN220 
     BECMG 2020/2021 BKN020CB 
     TEMPO 2022/2102 4SM TSRA OVC015CB 
     FM210500 00000KT 6SM HZ BKN015 OVC070 
     FM211500 14006KT P6SM BKN020 BKN080 BKN220
       
TAF AMD MMPA 202209Z 2022/2118 10010KT 6SM HZ SCT020 
     FM210300 00000KT 4SM HZ BKN015 
     FM211000 00000KT 2SM BR HZ BKN010 
     TEMPO 2110/2114 1/2SM FG VV004 
     FM211500 35006KT 3SM BR BKN010 BKN250 
     FM211600 04006KT 4SM HZ BKN015 BKN250
       
TAF MMPB 201615Z 2018/2118 16008KT P6SM SCT020 BKN090 BKN220 
     TEMPO 2022/2102 4SM TSRA BKN020CB 
     FM210400 00000KT 6SM HZ BKN015 BKN070 BKN220 
     TEMPO 2110/2114 3SM BR HZ OVC010 
     FM211500 14006KT 6SM HZ BKN015 BKN070 BKN220
       
TAF MMPG 201654Z 2018/2118 14012KT P6SM SCT040 SCT250 
     FM210300 13006KT P6SM SKC 
     PROB40 2103/2107 SCT030CB 
     FM211000 13006KT P6SM SCT020 
     TEMPO 2111/2115 BKN015 
     FM211600 13010KT P6SM SCT030
       
TAF AMD MMPN 201845Z 2019/2118 22006KT 3SM BR HZ OVC015CB 
     BECMG 2020/2021 4SM -RA 
     TEMPO 2021/2101 3SM TSRA 
     FM210300 00000KT 4SM BR HZ BKN015 OVC080 
     TEMPO 2110/2114 3SM BR HZ 
     FM211600 16008KT 6SM HZ BKN015 BKN080 BKN280
       
TAF MMPQ 201646Z 2018/2118 09010KT 4SM HZ BKN020 BKN280 
     BECMG 2021/2022 BKN020CB 
     TEMPO 2022/2102 2SM TSRA BKN010CB OVC030 
     FM210200 00000KT 3SM BR HZ BKN010 OVC030 
     TEMPO 2110/2114 1SM BR HZ OVC010 
     FM211500 06006KT 4SM HZ BKN015 BKN280
       
TAF MMPR 202306Z 2100/2206 24010KT 5SM -TSRA SCT030CB BKN065 TX32/2120Z TN25/2112Z 
     TEMPO 2100/2104 3SM TSRA BKN020CB 
     FM210400 36005KT 5SM HZ SCT020 BKN090 BKN250 
     FM211800 24010KT P6SM SCT020 BKN250 
     TEMPO 2123/2203 4SM TSRA BKN015CB 
     FM220300 34005KT 5SM -TSRA SCT020CB BKN090 BKN250
       
TAF AMD MMPS 202207Z 2022/2118 34008KT 3SM DZ SCT007 OVC015CB 
     TEMPO 2023/2103 3SM TSRA 
     FM210300 34005KT 5SM -RA SCT015 BKN050 BKN090 
     TEMPO 2103/2106 4SM -TSRA BKN015CB 
     FM210600 35005KT P6SM SCT015 BKN060 BKN250 
     FM211700 24010KT P6SM SCT020 BKN250
       
TAF MMQT 201625Z 2018/2118 06010KT 6SM HZ BKN020 BKN220 
     PROB40 2023/2103 BKN020CB 
     FM210300 08005KT 6SM HZ SCT020 
     TEMPO 2110/2114 3SM BR HZ BKN010 
     FM211500 08010KT 6SM HZ BKN020
       
TAF MMRX 201654Z 2018/2118 14015KT P6SM SCT020 BKN220 
     TEMPO 2019/2023 BKN020 BKN220 
     FM210300 14008KT 6SM HZ SCT015 
     TEMPO 2111/2115 BKN010 
     FM211500 14015KT P6SM BKN015
       
TAF MMSD 201632Z 2018/2118 14010KT P6SM SCT250 
     FM210300 30006KT P6SM SCT250 
     FM211700 14008KT P6SM SCT250
       
TAF MMSL 201632Z 2018/2118 16010KT P6SM SCT250 
     FM210300 30006KT P6SM SCT250 
     FM211700 16008KT P6SM SCT250
       
TAF MMSP 202306Z 2100/2206 07015KT P6SM SCT025 TX28/2121Z TN14/2112Z 
     BECMG 2108/2109 00000KT 
     TEMPO 2110/2114 2SM BR 
     FM211400 09005KT P6SM SCT020 BKN250 
     BECMG 2120/2121 09005KT 
     FM220300 09010KT P6SM SCT020 BKN250
       
TAF AMD MMTC 202308Z 2023/2118 02015G25KT 4SM BLDU SCT030CB BKN080 BKN200 
     TEMPO 2100/2104 2SM TSRA BLDU OVC030CB 
     FM210400 02005KT 5SM HZ SCT020 BKN080 
     FM211700 03010KT P6SM SCT020 BKN250
       
TAF MMTG 201719Z 2018/2118 06015KT P6SM BKN015 BKN080 
     FM202100 10015KT P6SM BKN010CB OVC070 
     TEMPO 2021/2101 4SM TSRA 
     BECMG 2102/2103 4SM -RA 
     TEMPO 2103/2107 2SM TSRA 
     FM211000 00000KT 2SM BR OVC006 
     FM211500 02010KT 3SM HZ BKN020 BKN100
       
TAF MMTJ 202300Z 2100/2206 26010KT P6SM SCT020 TX26/2120Z TN17/2112Z 
     FM210400 00000KT 5SM HZ BKN020 
     FM211000 00000KT 3SM BR OVC010 
     FM211600 28010KT 5SM HZ BKN025 
     FM212000 24010KT P6SM SCT020
       
TAF MMTM 201645Z 2018/2118 13010KT P6SM SCT020 SCT100 
     BECMG 2101/2102 06010KT 
     FM210800 10010KT P6SM VC SH SCT015CB BKN100 
     FM211700 13010KT P6SM SCT100 BKN250
       
TAF MMTO 202251Z 2100/2206 06005KT 4SM -TSRA BKN015CB OVC070 TX22/2121Z TN10/2112Z 
     TEMPO 2100/2104 2SM TSRA OVC015CB 
     FM210400 05005KT 5SM -TSRA SCT015 BKN050 OVC090 
     BECMG 2108/2109 2SM BR VV006 
     FM211500 05010KT 5SM HZ SCT015 BKN050 OVC070 
     TEMPO 2122/2202 4SM TSRA BKN015CB OVC060 
     FM220200 05005KT 5SM -TSRA SCT015CB BKN050 OVC090
       
TAF MMTP 202309Z 2100/2206 20015KT P6SM -RA BKN015CB OVC070 
     TEMPO 2100/2104 3SM TSRA 
     BECMG 2105/2106 10010KT 
     TEMPO 2106/2109 3SM TSRA 
     FM211400 22010KT P6SM SCT020 BKN100 BKN250 
     FM211900 22015KT P6SM BKN020CB OVC120 
     TEMPO 2120/2124 5SM TSRA
       
TAF MMUN 202309Z 2100/2206 07015KT P6SM SCT015CB BKN100 TX31/2120Z TN25/2112Z 
     FM210300 10015KT P6SM BKN015CB OVC080 
     TEMPO 2103/2107 4SM TSRA 
     BECMG 2108/2109 10010KT 
     FM211200 00000KT P6SM SCT015 BKN100 BKN250 
     FM211900 14015KT P6SM BKN020CB OVC100 
     TEMPO 2120/2124 4SM TSRA
       
TAF MMVA 201646Z 2018/2118 30006KT 5SM HZ SCT010 BKN020 BKN280 
     BECMG 2022/2023 4SM -RA BKN02CB 
     TEMPO 2100/2104 2SM TSRA OVC010CB 
     FM210600 22005KT 4SM -RA BR BKN010 OVC030 
     TEMPO 2110/2114 1SM BR HZ OVC010 
     FM211500 26006KT 4SM HZ BKN015 BKN300
       
TAF MMVR 201645Z 2018/2118 07010KT P6SM BKN020 BKN230 TX32/2021Z TN25/2112Z 
     FM210300 10010KT P6SM BKN015CB OVC070 
     TEMPO 2105/2109 5SM TSRA 
     FM211500 12010KT P6SM SCT020CB BKN120
       
TAF MMZC 202306Z 2100/2206 22010KT P6SM SCT030 TX26/2121Z TN12/2112Z 
     TEMPO 2100/2104 3SM TSRA BKN020CB 
     FM210400 13010KT 5SM -TSRA SCT020 BKN050 
     FM210900 13005KT 5SM HZ SCT020 BKN250 
     FM211800 09010KT 5SM HZ SCT020 BKN250
       
TAF AMD MMZH 202029Z 2020/2118 22010KT 2SM RA BKN015CB BKN080 OVC100 
     BECMG 2021/2022 4SM -RA SCT015CB BKN080 OVC100 
     TEMPO 2022/2102 2SM TSRA OVC015CB 
     FM210300 10006KT 6SM -RA BKN015CB OVC070 
     TEMPO 2107/2111 2SM TSRA BKN010CB OVC070 
     FM211500 22006KT 6SM HZ SCT015 BKN080 BKN220
       
TAF MMZO 201657Z 2018/2118 20010KT P6SM SCT020 SCT230 
     FM202100 22015KT P6SM VC SH SCT020CB BKN100 BKN260 
     FM210100 25015KT P6SM BKN020CB OVC100 
     TEMPO 2101/2105 4SM TSRA 
     FM211500 24001KT P6SM VC SH SCT020CB OVC100
       
TAF MMAA 202251Z 2100/2206 26010KT P6SM SCT015 BKN080 OVC100 TX30/2120Z TN23/2112Z 
     TEMPO 2100/2104 4SM TSRA BKN015CB 
     FM210400 34005KT 5SM -TSRA SCT015CB OVC080 
     TEMPO 2113/2117 3SM TSRA 
     FM211700 22010KT 5SM -RA SCT015 BKN080 BKN250 
     TEMPO 2121/2201 3SM TSRA OVC015CB 
     FM220100 16005KT 5SM -RA SCT015CB BKN050 OVC080
       
TAF MMAN 201729Z 2018/2118 04015KT P6SM BKN020 
     FM202100 08015KT P6SM BKN015CB BKN090 
     TEMPO 2021/2101 5SM TSRA 
     BECMG 2103/2104 00000KT 
     FM210600 00000KT P6SM SCT010 BKN230 
     FM211500 03010KT 5SM HZ SCT015 SCT080
       
TAF MMAS 201625Z 2018/2118 06010KT P6SM SCT040 
     FM210300 09005KT P6SM SCT090 BKN220 
     FM211600 11006KT P6SM SCT220
       
TAF MMBT 201615Z 2018/2118 08010KT 6SM HZ SCT020 BKN090 BKN200 
     BECMG 2022/2023 5SM -RA BKN020CB 
     TEMPO 2100/2104 2SM TSRA OVC010CB 
     FM210600 09005KT 6SM HZ BKN020 OVC090 
     FM211500 25006KT 6SM HZ BKN015 OVC080
       
TAF MMCB 201615Z 2018/2118 20008KT P6SM SCT020 BKN080 BKN200 
     BECMG 2021/2022 6SM -RA BKN015CB 
     TEMPO 2100/2104 3SM TSRA 
     FM210600 00000KT 6SM HZ BKN015 OVC070 
     TEMPO 2110/2114 3SM -RA BR BKN010OVC070 
     FM211600 16006KT P6SM BKN020 BKN080 BKN200
       
TAF MMCE 201646Z 2018/2118 35012KT P6SM SCT020 BKN280 
     BECMG 2100/2101 BKN020CB 
     TEMPO 2101/2105 2SM TSRA BKN010CB OVC080 
     FM210700 13010KT 6SM HZ BKN015 BKN280 
     FM211500 12010KT P6SM SCT015 BKN300
       
TAF MMCL 201711Z 2018/2118 20015KT P6SM SCT020 SCT230 
     FM210200 22015KT P6SM SCT030CB BKN120 BKN250 
     FM211500 25001KT P6SM SCT100 BKN250
       
TAF MMCM 201646Z 2018/2118 10010KT P6SM SCT020 
     FM210300 08008KT P6SM SCT015 
     TEMPO 2110/2114 BKN010 
     FM211500 10010KT P6SM SCT020
       
TAF MMCN 201632Z 2018/2118 25010KT P6SM SCT030 
     FM210300 35005KT P6SM SKC 
     FM211600 30006KT P6SM SKC
       
TAF MMCP 201646Z 2018/2118 35015KT P6SM SCT015 SCT300 
     FM210100 12010KT P6SM BKN015CB BKN300 
     TEMPO 2102/2106 4SM TSRA 
     FM210600 12010KT 6SM HZ BKN015 
     FM211500 09010KT P6SM SCT020 BKN300
       
TAF MMCS 201729Z 2018/2118 26010KT P6SM SCT030 
     BECMG 2102/2103 00000KT 
     FM211500 32010KT P6SM SKC
       
TAF MMCU 201729Z 2018/2118 34015KT P6SM SCT040 SCT230 
     FM202100 02015KT P6SM BKN035CB BKN120 
     TEMPO 2023/2103 6SM TSRA 
     BECMG 2104/2105 00000KT 
     FM210900 00000KT P6SM SCT100 BKN250 
     FM211500 12001KT P6SM BKN250
       
TAF MMCV 201654Z 2018/2118 15015KT P6SM SCT030 SCT250 
     FM210300 16005KT P6SM SCT015 
     TEMPO 2110/2114 3SM BR HZ 
     FM211500 15010KT P6SM SCT020 SCT250
       
TAF MMCZ 202309Z 2100/2206 10015KT P6SM SCT015 SCT080 
     FM210300 12010KT P6SM BKN015CB BKN080 
     TEMPO 2103/2107 4SM TSRA 
     FM211000 00000KT P6SM SCT020CB BKN100 BKN250 
     FM211800 16015KT P6SM BKN020CB OVC100 
     TEMPO 2122/2202 4SM TSRA
       
TAF MMDO 201632Z 2018/2118 06010KT P6SM SCT020 BKN080 BKN200 
     BECMG 2020/2021 BKN020CB 
     TEMPO 2022/2102 4SM TSRA 
     FM210600 00000KT 6SM HZ SCT020 BKN080 OVC140 
     FM211500 10010KT P6SM SCT140
       
TAF MMEP 201625Z 2018/2118 33008KT P6SM BKN015 BKN250 
     BECMG 2101/2102 00000KT BKN010 OVC015 
     FM211100 00000KT 1SM DZ BR BKN004 OVC010 
     FM211430 27005KT 3SM BR OVC010 
     FM211530 30006KT 6SM HZ BKN015 BKN200
       
TAF MMGL 202306Z 2100/2206 24005KT P6SM SCT020 BKN300 TX28/2122Z TN16/2112Z 
     TEMPO 2100/2104 4SM TSRA BKN020CB 
     FM210400 09005KT P6SM SCT020 BKN090 BKN250 
     FM211700 13005KT 5SM HZ SCT025 BKN250 
     TEMPO 2123/2203 3SM TSRA OVC020CB 
     FM220300 22005KT 5SM -TSRA SCT020CB BKN050 OVC090
       
TAF MMGM 201632Z 2018/2118 25010KT P6SM SCT020 
     FM210300 30005KT P6SM SKC 
     FM211600 26008KT P6SM SKC
       
TAF MMHO 201711Z 2018/2118 14015KT P6SM SCT035 
     BECMG 2102/2103 00000KT 
     FM211500 16010KT P6SM SCT100 SCT250
       
TAF MMIA 201625Z 2018/2118 23010KT P6SM SCT020 BKN250 
     BECMG 2020/2021 BKN020CB 
     TEMPO 2022/2102 4SM TSRA OVC015CB 
     FM210400 06005KT 5SM -RA BKN015 OVC070 
     TEMPO 2110/2114 3SM -RA BR OVC010 
     FM211600 20006KT P6SM BKN015 BKN070
       
TAF COR MMIO 210010Z 2018/2118 03015KT P6SM SCT020 SCT100 
     FM210000 06015KT P6SM BKN025CB BKN120 
     TEMPO 2100/2104 5SM TSRA 
     FM210600 00000KT P6SM SCT100 BKN240 
     FM211500 12010KT P6SM SCT025 BKN250
       
TAF MMLM 201632Z 2018/2118 26010KT P6SM SKC 
     FM210300 30006KT P6SM SKC 
     FM211600 30012KT P6SM SKC
       
TAF MMLO 201625Z 2018/2118 07010KT P6SM SCT030 SCT220 
     FM210300 07005KT P6SM SKC 
     TEMPO 2110/2114 6SM HZ BKN015 
     FM211600 09006KT P6SM SCT080
       
TAF MMLP 201711Z 2018/2118 03015KT P6SM SCT040 
     BECMG 2102/2103 00000KT 
     FM211500 10010KT P6SM SCT230
       
TAF MMLT 201632Z 2018/2118 15008KT P6SM SKC 
     FM210300 20006KT P6SM SKC 
     FM211600 26006KT P6SM SCT250
       
TAF MMMA 201654Z 2018/2118 25015KT P6SM BKN025 BKN250 
     FM210300 14010KT 6SM HZ SCT015 BKN200 
     TEMPO 2111/2115 4SM HZ BKN010 
     FM211500 15015KT P6SM BKN020
       
TAF MMMD 202309Z 2100/2206 03015KT P6SM BKN020CB BKN100 TX34/2120Z TN25/2112Z 
     TEMPO 2101/2105 3SM TSRA 
     BECMG 2106/2107 10010KT 
     FM210900 00000KT P6SM SCT015CB BKN100 BKN250 
     FM211600 M14010KT P6SM SCT025 BKN250 
     FM212000 12015KT P6SM OVC015CB 
     TEMPO 2120/2124 5SM TSRA
       
TAF MMML 201711Z 2018/2118 20015KT P6SM SKC 
     BECMG 2102/2103 00000KT 
     FM211500 25010KT P6SM SKC
       
TAF COR MMMM 210057Z 2100/2206 06005KT P6SM BKN020CB BKN120 
     TEMPO 2101/2105 5SM TSRA 
     FM211600 19005KT 5SM HZ SCT020 BKN250 
     TEMPO 2201/2204 3SM TSRA OVC010CB 
     FM220400 19005KT 5SM RA BKN015CB OVC070
       
TAF MMMT 201646Z 2018/2118 36010KT P6SM BKN020 BKN250 
     FM210200 00000KT 6SM -RA HZ BKN015 BKN070 BKN250 
     TEMPO 2102/2106 4SM TSRA BKN010CB OVC070 
     FM211000 24005KT 3SM BR BKN010 OVC030 
     FM211500 26006KT P6SM BKN020 BKN300
       
TAF MMMV 200503Z 2006/2106 02005KT 6SM HZ SCT030 
     FM201800 13010KT P6SM SCT040 
     FM210300 13005KT 6SM HZ SKC
       
TAF MMMX 202251Z 2100/2206 11010KT P6SM SCT020 OVC080 TX26/2121Z TN14/2112Z 
     TEMPO 2100/2104 5SM TSRA BKN020CB 
     FM210400 13005KT 5SM -RA SCT020 OVC080 
     BECMG 2108/2109 4SM HZ FU 
     FM211800 05010KT P6SM SCT020 BKN250 
     TEMPO 2123/2203 2SM TSRA OVC020CB 
     FM220300 05005KT 4SM TSRA BKN015CB OVC070
       
TAF MMMY 202311Z 2100/2206 10015KT P6SM BKN020CB OVC120 TX35/2120Z TN24/2112Z 
     TEMPO 2101/2105 5SM TSRA 
     BECMG 2106/2107 12010KT 
     FM210900 00000KT 4SM HZ OVC015 
     FM211600 14010KT 5SM HZ SCT015 BKN080
       
TAF MMMZ 202300Z 2100/2206 32010KT P6SM BKN015CB BKN120 TX32/2120Z TN25/2112Z 
     TEMPO 2103/2107 4SM TSRA 
     BECMG 2108/2109 03010KT 
     FM211500 23010KT P6SM VC SH SCT020CB BKN120 BKN250 
     FM211800 26010KT P6SM SCT030 BKN230 
     TEMPO 2122/2202 6SM TSRA BKN030CB
       
TAF MMNL 201654Z 2018/2118 14012KT P6SM SCT030 BKN220 
     FM210300 14008KT P6SM SCT220 
     FM211500 14012KT P6SM SKC
       
TAF MMOX 201615Z 2018/2118 13008KT P6SM BKN020 BKN080 BKN220 
     BECMG 2020/2021 BKN020CB 
     TEMPO 2022/2102 4SM TSRA OVC015CB 
     FM210500 00000KT 6SM HZ BKN015 OVC070 
     FM211500 14006KT P6SM BKN020 BKN080 BKN220
       
TAF AMD MMPA 202209Z 2022/2118 10010KT 6SM HZ SCT020 
     FM210300 00000KT 4SM HZ BKN015 
     FM211000 00000KT 2SM BR HZ BKN010 
     TEMPO 2110/2114 1/2SM FG VV004 
     FM211500 35006KT 3SM BR BKN010 BKN250 
     FM211600 04006KT 4SM HZ BKN015 BKN250
       
TAF MMPB 201615Z 2018/2118 16008KT P6SM SCT020 BKN090 BKN220 
     TEMPO 2022/2102 4SM TSRA BKN020CB 
     FM210400 00000KT 6SM HZ BKN015 BKN070 BKN220 
     TEMPO 2110/2114 3SM BR HZ OVC010 
     FM211500 14006KT 6SM HZ BKN015 BKN070 BKN220
       
TAF MMPG 201654Z 2018/2118 14012KT P6SM SCT040 SCT250 
     FM210300 13006KT P6SM SKC 
     PROB40 2103/2107 SCT030CB 
     FM211000 13006KT P6SM SCT020 
     TEMPO 2111/2115 BKN015 
     FM211600 13010KT P6SM SCT030
       
TAF AMD MMPN 201845Z 2019/2118 22006KT 3SM BR HZ OVC015CB 
     BECMG 2020/2021 4SM -RA 
     TEMPO 2021/2101 3SM TSRA 
     FM210300 00000KT 4SM BR HZ BKN015 OVC080 
     TEMPO 2110/2114 3SM BR HZ 
     FM211600 16008KT 6SM HZ BKN015 BKN080 BKN280
       
TAF MMPQ 201646Z 2018/2118 09010KT 4SM HZ BKN020 BKN280 
     BECMG 2021/2022 BKN020CB 
     TEMPO 2022/2102 2SM TSRA BKN010CB OVC030 
     FM210200 00000KT 3SM BR HZ BKN010 OVC030 
     TEMPO 2110/2114 1SM BR HZ OVC010 
     FM211500 06006KT 4SM HZ BKN015 BKN280
       
TAF MMPR 202306Z 2100/2206 24010KT 5SM -TSRA SCT030CB BKN065 TX32/2120Z TN25/2112Z 
     TEMPO 2100/2104 3SM TSRA BKN020CB 
     FM210400 36005KT 5SM HZ SCT020 BKN090 BKN250 
     FM211800 24010KT P6SM SCT020 BKN250 
     TEMPO 2123/2203 4SM TSRA BKN015CB 
     FM220300 34005KT 5SM -TSRA SCT020CB BKN090 BKN250
       
TAF AMD MMPS 202207Z 2022/2118 34008KT 3SM DZ SCT007 OVC015CB 
     TEMPO 2023/2103 3SM TSRA 
     FM210300 34005KT 5SM -RA SCT015 BKN050 BKN090 
     TEMPO 2103/2106 4SM -TSRA BKN015CB 
     FM210600 35005KT P6SM SCT015 BKN060 BKN250 
     FM211700 24010KT P6SM SCT020 BKN250
       
TAF MMQT 201625Z 2018/2118 06010KT 6SM HZ BKN020 BKN220 
     PROB40 2023/2103 BKN020CB 
     FM210300 08005KT 6SM HZ SCT020 
     TEMPO 2110/2114 3SM BR HZ BKN010 
     FM211500 08010KT 6SM HZ BKN020
       
TAF MMRX 201654Z 2018/2118 14015KT P6SM SCT020 BKN220 
     TEMPO 2019/2023 BKN020 BKN220 
     FM210300 14008KT 6SM HZ SCT015 
     TEMPO 2111/2115 BKN010 
     FM211500 14015KT P6SM BKN015
       
TAF MMSD 201632Z 2018/2118 14010KT P6SM SCT250 
     FM210300 30006KT P6SM SCT250 
     FM211700 14008KT P6SM SCT250
       
TAF MMSL 201632Z 2018/2118 16010KT P6SM SCT250 
     FM210300 30006KT P6SM SCT250 
     FM211700 16008KT P6SM SCT250
       
TAF MMSP 202306Z 2100/2206 07015KT P6SM SCT025 TX28/2121Z TN14/2112Z 
     BECMG 2108/2109 00000KT 
     TEMPO 2110/2114 2SM BR 
     FM211400 09005KT P6SM SCT020 BKN250 
     BECMG 2120/2121 09005KT 
     FM220300 09010KT P6SM SCT020 BKN250
       
TAF AMD MMTC 202308Z 2023/2118 02015G25KT 4SM BLDU SCT030CB BKN080 BKN200 
     TEMPO 2100/2104 2SM TSRA BLDU OVC030CB 
     FM210400 02005KT 5SM HZ SCT020 BKN080 
     FM211700 03010KT P6SM SCT020 BKN250
       
TAF MMTG 201719Z 2018/2118 06015KT P6SM BKN015 BKN080 
     FM202100 10015KT P6SM BKN010CB OVC070 
     TEMPO 2021/2101 4SM TSRA 
     BECMG 2102/2103 4SM -RA 
     TEMPO 2103/2107 2SM TSRA 
     FM211000 00000KT 2SM BR OVC006 
     FM211500 02010KT 3SM HZ BKN020 BKN100
       
TAF MMTJ 202300Z 2100/2206 26010KT P6SM SCT020 TX26/2120Z TN17/2112Z 
     FM210400 00000KT 5SM HZ BKN020 
     FM211000 00000KT 3SM BR OVC010 
     FM211600 28010KT 5SM HZ BKN025 
     FM212000 24010KT P6SM SCT020
       
TAF MMTM 201645Z 2018/2118 13010KT P6SM SCT020 SCT100 
     BECMG 2101/2102 06010KT 
     FM210800 10010KT P6SM VC SH SCT015CB BKN100 
     FM211700 13010KT P6SM SCT100 BKN250
       
TAF MMTO 202251Z 2100/2206 06005KT 4SM -TSRA BKN015CB OVC070 TX22/2121Z TN10/2112Z 
     TEMPO 2100/2104 2SM TSRA OVC015CB 
     FM210400 05005KT 5SM -TSRA SCT015 BKN050 OVC090 
     BECMG 2108/2109 2SM BR VV006 
     FM211500 05010KT 5SM HZ SCT015 BKN050 OVC070 
     TEMPO 2122/2202 4SM TSRA BKN015CB OVC060 
     FM220200 05005KT 5SM -TSRA SCT015CB BKN050 OVC090
       
TAF MMTP 202309Z 2100/2206 20015KT P6SM -RA BKN015CB OVC070 
     TEMPO 2100/2104 3SM TSRA 
     BECMG 2105/2106 10010KT 
     TEMPO 2106/2109 3SM TSRA 
     FM211400 22010KT P6SM SCT020 BKN100 BKN250 
     FM211900 22015KT P6SM BKN020CB OVC120 
     TEMPO 2120/2124 5SM TSRA
       
TAF MMUN 202309Z 2100/2206 07015KT P6SM SCT015CB BKN100 TX31/2120Z TN25/2112Z 
     FM210300 10015KT P6SM BKN015CB OVC080 
     TEMPO 2103/2107 4SM TSRA 
     BECMG 2108/2109 10010KT 
     FM211200 00000KT P6SM SCT015 BKN100 BKN250 
     FM211900 14015KT P6SM BKN020CB OVC100 
     TEMPO 2120/2124 4SM TSRA
       
TAF MMVA 201646Z 2018/2118 30006KT 5SM HZ SCT010 BKN020 BKN280 
     BECMG 2022/2023 4SM -RA BKN02CB 
     TEMPO 2100/2104 2SM TSRA OVC010CB 
     FM210600 22005KT 4SM -RA BR BKN010 OVC030 
     TEMPO 2110/2114 1SM BR HZ OVC010 
     FM211500 26006KT 4SM HZ BKN015 BKN300
       
TAF MMVR 201645Z 2018/2118 07010KT P6SM BKN020 BKN230 TX32/2021Z TN25/2112Z 
     FM210300 10010KT P6SM BKN015CB OVC070 
     TEMPO 2105/2109 5SM TSRA 
     FM211500 12010KT P6SM SCT020CB BKN120
       
TAF MMZC 202306Z 2100/2206 22010KT P6SM SCT030 TX26/2121Z TN12/2112Z 
     TEMPO 2100/2104 3SM TSRA BKN020CB 
     FM210400 13010KT 5SM -TSRA SCT020 BKN050 
     FM210900 13005KT 5SM HZ SCT020 BKN250 
     FM211800 09010KT 5SM HZ SCT020 BKN250
       
TAF AMD MMZH 202029Z 2020/2118 22010KT 2SM RA BKN015CB BKN080 OVC100 
     BECMG 2021/2022 4SM -RA SCT015CB BKN080 OVC100 
     TEMPO 2022/2102 2SM TSRA OVC015CB 
     FM210300 10006KT 6SM -RA BKN015CB OVC070 
     TEMPO 2107/2111 2SM TSRA BKN010CB OVC070 
     FM211500 22006KT 6SM HZ SCT015 BKN080 BKN220
       
TAF MMZO 201657Z 2018/2118 20010KT P6SM SCT020 SCT230 
     FM202100 22015KT P6SM VC SH SCT020CB BKN100 BKN260 
     FM210100 25015KT P6SM BKN020CB OVC100 
     TEMPO 2101/2105 4SM TSRA 
     FM211500 24001KT P6SM VC SH SCT020CB OVC100
       
TAF MMBT 201615Z 2018/2118 08010KT 6SM HZ SCT020 BKN090 BKN200 
     BECMG 2022/2023 5SM -RA BKN020CB 
     TEMPO 2100/2104 2SM TSRA OVC010CB 
     FM210600 09005KT 6SM HZ BKN020 OVC090 
     FM211500 25006KT 6SM HZ BKN015 OVC080
       
TAF MMVA 201646Z 2018/2118 30006KT 5SM HZ SCT010 BKN020 BKN280 
     BECMG 2022/2023 4SM -RA BKN02CB 
     TEMPO 2100/2104 2SM TSRA OVC010CB 
     FM210600 22005KT 4SM -RA BR BKN010 OVC030 
     TEMPO 2110/2114 1SM BR HZ OVC010 
     FM211500 26006KT 4SM HZ BKN015 BKN300
       
TAF MMUN 202309Z 2100/2206 07015KT P6SM SCT015CB BKN100 TX31/2120Z TN25/2112Z 
     FM210300 10015KT P6SM BKN015CB OVC080 
     TEMPO 2103/2107 4SM TSRA 
     BECMG 2108/2109 10010KT 
     FM211200 00000KT P6SM SCT015 BKN100 BKN250 
     FM211900 14015KT P6SM BKN020CB OVC100 
     TEMPO 2120/2124 4SM TSRA
       
TAF MMCM 201646Z 2018/2118 10010KT P6SM SCT020 
     FM210300 08008KT P6SM SCT015 
     TEMPO 2110/2114 BKN010 
     FM211500 10010KT P6SM SCT020
       
TAF MMCE 201646Z 2018/2118 35012KT P6SM SCT020 BKN280 
     BECMG 2100/2101 BKN020CB 
     TEMPO 2101/2105 2SM TSRA BKN010CB OVC080 
     FM210700 13010KT 6SM HZ BKN015 BKN280 
     FM211500 12010KT P6SM SCT015 BKN300
       
TAF MMCN 201632Z 2018/2118 25010KT P6SM SCT030 
     FM210300 35005KT P6SM SKC 
     FM211600 30006KT P6SM SKC
       
TAF MMCV 201654Z 2018/2118 15015KT P6SM SCT030 SCT250 
     FM210300 16005KT P6SM SCT015 
     TEMPO 2110/2114 3SM BR HZ 
     FM211500 15010KT P6SM SCT020 SCT250
       
TAF MMCZ 202309Z 2100/2206 10015KT P6SM SCT015 SCT080 
     FM210300 12010KT P6SM BKN015CB BKN080 
     TEMPO 2103/2107 4SM TSRA 
     FM211000 00000KT P6SM SCT020CB BKN100 BKN250 
     FM211800 16015KT P6SM BKN020CB OVC100 
     TEMPO 2122/2202 4SM TSRA
       
TAF MMCB 201615Z 2018/2118 20008KT P6SM SCT020 BKN080 BKN200 
     BECMG 2021/2022 6SM -RA BKN015CB 
     TEMPO 2100/2104 3SM TSRA 
     FM210600 00000KT 6SM HZ BKN015 OVC070 
     TEMPO 2110/2114 3SM -RA BR BKN010OVC070 
     FM211600 16006KT P6SM BKN020 BKN080 BKN200
       
TAF MMCL 201711Z 2018/2118 20015KT P6SM SCT020 SCT230 
     FM210200 22015KT P6SM SCT030CB BKN120 BKN250 
     FM211500 25001KT P6SM SCT100 BKN250
       
TAF MMLO 201625Z 2018/2118 07010KT P6SM SCT030 SCT220 
     FM210300 07005KT P6SM SKC 
     TEMPO 2110/2114 6SM HZ BKN015 
     FM211600 09006KT P6SM SCT080
       
TAF MMAN 201729Z 2018/2118 04015KT P6SM BKN020 
     FM202100 08015KT P6SM BKN015CB BKN090 
     TEMPO 2021/2101 5SM TSRA 
     BECMG 2103/2104 00000KT 
     FM210600 00000KT P6SM SCT010 BKN230 
     FM211500 03010KT 5SM HZ SCT015 SCT080
       
TAF MMGL 202306Z 2100/2206 24005KT P6SM SCT020 BKN300 TX28/2122Z TN16/2112Z 
     TEMPO 2100/2104 4SM TSRA BKN020CB 
     FM210400 09005KT P6SM SCT020 BKN090 BKN250 
     FM211700 13005KT 5SM HZ SCT025 BKN250 
     TEMPO 2123/2203 3SM TSRA OVC020CB 
     FM220300 22005KT 5SM -TSRA SCT020CB BKN050 OVC090
       
TAF MMDO 201632Z 2018/2118 06010KT P6SM SCT020 BKN080 BKN200 
     BECMG 2020/2021 BKN020CB 
     TEMPO 2022/2102 4SM TSRA 
     FM210600 00000KT 6SM HZ SCT020 BKN080 OVC140 
     FM211500 10010KT P6SM SCT140
       
TAF MMTG 201719Z 2018/2118 06015KT P6SM BKN015 BKN080 
     FM202100 10015KT P6SM BKN010CB OVC070 
     TEMPO 2021/2101 4SM TSRA 
     BECMG 2102/2103 4SM -RA 
     TEMPO 2103/2107 2SM TSRA 
     FM211000 00000KT 2SM BR OVC006 
     FM211500 02010KT 3SM HZ BKN020 BKN100
       
TAF MMTJ 202300Z 2100/2206 26010KT P6SM SCT020 TX26/2120Z TN17/2112Z 
     FM210400 00000KT 5SM HZ BKN020 
     FM211000 00000KT 3SM BR OVC010 
     FM211600 28010KT 5SM HZ BKN025 
     FM212000 24010KT P6SM SCT020
       
TAF COR MMMM 210057Z 2100/2206 06005KT P6SM BKN020CB BKN120 
     TEMPO 2101/2105 5SM TSRA 
     FM211600 19005KT 5SM HZ SCT020 BKN250 
     TEMPO 2201/2204 3SM TSRA OVC010CB 
     FM220400 19005KT 5SM RA BKN015CB OVC070
       
TAF MMTM 201645Z 2018/2118 13010KT P6SM SCT020 SCT100 
     BECMG 2101/2102 06010KT 
     FM210800 10010KT P6SM VC SH SCT015CB BKN100 
     FM211700 13010KT P6SM SCT100 BKN250
       
TAF MMVR 201645Z 2018/2118 07010KT P6SM BKN020 BKN230 TX32/2021Z TN25/2112Z 
     FM210300 10010KT P6SM BKN015CB OVC070 
     TEMPO 2105/2109 5SM TSRA 
     FM211500 12010KT P6SM SCT020CB BKN120
       
TAF MMHO 201711Z 2018/2118 14015KT P6SM SCT035 
     BECMG 2102/2103 00000KT 
     FM211500 16010KT P6SM SCT100 SCT250
       
TAF MMGM 201632Z 2018/2118 25010KT P6SM SCT020 
     FM210300 30005KT P6SM SKC 
     FM211600 26008KT P6SM SKC
       
TAF MMAA 202251Z 2100/2206 26010KT P6SM SCT015 BKN080 OVC100 TX30/2120Z TN23/2112Z 
     TEMPO 2100/2104 4SM TSRA BKN015CB 
     FM210400 34005KT 5SM -TSRA SCT015CB OVC080 
     TEMPO 2113/2117 3SM TSRA 
     FM211700 22010KT 5SM -RA SCT015 BKN080 BKN250 
     TEMPO 2121/2201 3SM TSRA OVC015CB 
     FM220100 16005KT 5SM -RA SCT015CB BKN050 OVC080
       
TAF MMZC 202306Z 2100/2206 22010KT P6SM SCT030 TX26/2121Z TN12/2112Z 
     TEMPO 2100/2104 3SM TSRA BKN020CB 
     FM210400 13010KT 5SM -TSRA SCT020 BKN050 
     FM210900 13005KT 5SM HZ SCT020 BKN250 
     FM211800 09010KT 5SM HZ SCT020 BKN250
       
TAF MMRX 201654Z 2018/2118 14015KT P6SM SCT020 BKN220 
     TEMPO 2019/2023 BKN020 BKN220 
     FM210300 14008KT 6SM HZ SCT015 
     TEMPO 2111/2115 BKN010 
     FM211500 14015KT P6SM BKN015
       
TAF MMLP 201711Z 2018/2118 03015KT P6SM SCT040 
     BECMG 2102/2103 00000KT 
     FM211500 10010KT P6SM SCT230
       
TAF MMMY 202311Z 2100/2206 10015KT P6SM BKN020CB OVC120 TX35/2120Z TN24/2112Z 
     TEMPO 2101/2105 5SM TSRA 
     BECMG 2106/2107 12010KT 
     FM210900 00000KT 4SM HZ OVC015 
     FM211600 14010KT 5SM HZ SCT015 BKN080
       
TAF MMCU 201729Z 2018/2118 34015KT P6SM SCT040 SCT230 
     FM202100 02015KT P6SM BKN035CB BKN120 
     TEMPO 2023/2103 6SM TSRA 
     BECMG 2104/2105 00000KT 
     FM210900 00000KT P6SM SCT100 BKN250 
     FM211500 12001KT P6SM BKN250
       
TAF MMMZ 202300Z 2100/2206 32010KT P6SM BKN015CB BKN120 TX32/2120Z TN25/2112Z 
     TEMPO 2103/2107 4SM TSRA 
     BECMG 2108/2109 03010KT 
     FM211500 23010KT P6SM VC SH SCT020CB BKN120 BKN250 
     FM211800 26010KT P6SM SCT030 BKN230 
     TEMPO 2122/2202 6SM TSRA BKN030CB
       
TAF MMML 201711Z 2018/2118 20015KT P6SM SKC 
     BECMG 2102/2103 00000KT 
     FM211500 25010KT P6SM SKC
       
TAF MMMA 201654Z 2018/2118 25015KT P6SM BKN025 BKN250 
     FM210300 14010KT 6SM HZ SCT015 BKN200 
     TEMPO 2111/2115 4SM HZ BKN010 
     FM211500 15015KT P6SM BKN020
       
TAF MMPB 201615Z 2018/2118 16008KT P6SM SCT020 BKN090 BKN220 
     TEMPO 2022/2102 4SM TSRA BKN020CB 
     FM210400 00000KT 6SM HZ BKN015 BKN070 BKN220 
     TEMPO 2110/2114 3SM BR HZ OVC010 
     FM211500 14006KT 6SM HZ BKN015 BKN070 BKN220
       
TAF MMCP 201646Z 2018/2118 35015KT P6SM SCT015 SCT300 
     FM210100 12010KT P6SM BKN015CB BKN300 
     TEMPO 2102/2106 4SM TSRA 
     FM210600 12010KT 6SM HZ BKN015 
     FM211500 09010KT P6SM SCT020 BKN300
       
TAF MMQT 201625Z 2018/2118 06010KT 6SM HZ BKN020 BKN220 
     PROB40 2023/2103 BKN020CB 
     FM210300 08005KT 6SM HZ SCT020 
     TEMPO 2110/2114 3SM BR HZ BKN010 
     FM211500 08010KT 6SM HZ BKN020
       
TAF AMD MMZH 202029Z 2020/2118 22010KT 2SM RA BKN015CB BKN080 OVC100 
     BECMG 2021/2022 4SM -RA SCT015CB BKN080 OVC100 
     TEMPO 2022/2102 2SM TSRA OVC015CB 
     FM210300 10006KT 6SM -RA BKN015CB OVC070 
     TEMPO 2107/2111 2SM TSRA BKN010CB OVC070 
     FM211500 22006KT 6SM HZ SCT015 BKN080 BKN220
       
TAF MMAS 201625Z 2018/2118 06010KT P6SM SCT040 
     FM210300 09005KT P6SM SCT090 BKN220 
     FM211600 11006KT P6SM SCT220
       
TAF MMTO 202251Z 2100/2206 06005KT 4SM -TSRA BKN015CB OVC070 TX22/2121Z TN10/2112Z 
     TEMPO 2100/2104 2SM TSRA OVC015CB 
     FM210400 05005KT 5SM -TSRA SCT015 BKN050 OVC090 
     BECMG 2108/2109 2SM BR VV006 
     FM211500 05010KT 5SM HZ SCT015 BKN050 OVC070 
     TEMPO 2122/2202 4SM TSRA BKN015CB OVC060 
     FM220200 05005KT 5SM -TSRA SCT015CB BKN050 OVC090
       
TAF MMMX 202251Z 2100/2206 11010KT P6SM SCT020 OVC080 TX26/2121Z TN14/2112Z 
     TEMPO 2100/2104 5SM TSRA BKN020CB 
     FM210400 13005KT 5SM -RA SCT020 OVC080 
     BECMG 2108/2109 4SM HZ FU 
     FM211800 05010KT P6SM SCT020 BKN250 
     TEMPO 2123/2203 2SM TSRA OVC020CB 
     FM220300 05005KT 4SM TSRA BKN015CB OVC070
       
TAF MMPR 202306Z 2100/2206 24010KT 5SM -TSRA SCT030CB BKN065 TX32/2120Z TN25/2112Z 
     TEMPO 2100/2104 3SM TSRA BKN020CB 
     FM210400 36005KT 5SM HZ SCT020 BKN090 BKN250 
     FM211800 24010KT P6SM SCT020 BKN250 
     TEMPO 2123/2203 4SM TSRA BKN015CB 
     FM220300 34005KT 5SM -TSRA SCT020CB BKN090 BKN250
       
TAF MMMD 202309Z 2100/2206 03015KT P6SM BKN020CB BKN100 TX34/2120Z TN25/2112Z 
     TEMPO 2101/2105 3SM TSRA 
     BECMG 2106/2107 10010KT 
     FM210900 00000KT P6SM SCT015CB BKN100 BKN250 
     FM211600 M14010KT P6SM SCT025 BKN250 
     FM212000 12015KT P6SM OVC015CB 
     TEMPO 2120/2124 5SM TSRA
       
TAF AMD MMPN 201845Z 2019/2118 22006KT 3SM BR HZ OVC015CB 
     BECMG 2020/2021 4SM -RA 
     TEMPO 2021/2101 3SM TSRA 
     FM210300 00000KT 4SM BR HZ BKN015 OVC080 
     TEMPO 2110/2114 3SM BR HZ 
     FM211600 16008KT 6SM HZ BKN015 BKN080 BKN280
       
TAF MMLT 201632Z 2018/2118 15008KT P6SM SKC 
     FM210300 20006KT P6SM SKC 
     FM211600 26006KT P6SM SCT250
       
TAF MMSD 201632Z 2018/2118 14010KT P6SM SCT250 
     FM210300 30006KT P6SM SCT250 
     FM211700 14008KT P6SM SCT250
       
TAF MMMT 201646Z 2018/2118 36010KT P6SM BKN020 BKN250 
     FM210200 00000KT 6SM -RA HZ BKN015 BKN070 BKN250 
     TEMPO 2102/2106 4SM TSRA BKN010CB OVC070 
     FM211000 24005KT 3SM BR BKN010 OVC030 
     FM211500 26006KT P6SM BKN020 BKN300
       
TAF MMMV 200503Z 2006/2106 02005KT 6SM HZ SCT030 
     FM201800 13010KT P6SM SCT040 
     FM210300 13005KT 6SM HZ SKC
       
TAF MMPG 201654Z 2018/2118 14012KT P6SM SCT040 SCT250 
     FM210300 13006KT P6SM SKC 
     PROB40 2103/2107 SCT030CB 
     FM211000 13006KT P6SM SCT020 
     TEMPO 2111/2115 BKN015 
     FM211600 13010KT P6SM SCT030
       
TAF COR MMIO 210010Z 2018/2118 03015KT P6SM SCT020 SCT100 
     FM210000 06015KT P6SM BKN025CB BKN120 
     TEMPO 2100/2104 5SM TSRA 
     FM210600 00000KT P6SM SCT100 BKN240 
     FM211500 12010KT P6SM SCT025 BKN250
       
TAF MMZO 201657Z 2018/2118 20010KT P6SM SCT020 SCT230 
     FM202100 22015KT P6SM VC SH SCT020CB BKN100 BKN260 
     FM210100 25015KT P6SM BKN020CB OVC100 
     TEMPO 2101/2105 4SM TSRA 
     FM211500 24001KT P6SM VC SH SCT020CB OVC100
       
TAF MMSP 202306Z 2100/2206 07015KT P6SM SCT025 TX28/2121Z TN14/2112Z 
     BECMG 2108/2109 00000KT 
     TEMPO 2110/2114 2SM BR 
     FM211400 09005KT P6SM SCT020 BKN250 
     BECMG 2120/2121 09005KT 
     FM220300 09010KT P6SM SCT020 BKN250
       
TAF AMD MMPS 202207Z 2022/2118 34008KT 3SM DZ SCT007 OVC015CB 
     TEMPO 2023/2103 3SM TSRA 
     FM210300 34005KT 5SM -RA SCT015 BKN050 BKN090 
     TEMPO 2103/2106 4SM -TSRA BKN015CB 
     FM210600 35005KT P6SM SCT015 BKN060 BKN250 
     FM211700 24010KT P6SM SCT020 BKN250
       
TAF MMNL 201654Z 2018/2118 14012KT P6SM SCT030 BKN220 
     FM210300 14008KT P6SM SCT220 
     FM211500 14012KT P6SM SKC
       
TAF MMTP 202309Z 2100/2206 20015KT P6SM -RA BKN015CB OVC070 
     TEMPO 2100/2104 3SM TSRA 
     BECMG 2105/2106 10010KT 
     TEMPO 2106/2109 3SM TSRA 
     FM211400 22010KT P6SM SCT020 BKN100 BKN250 
     FM211900 22015KT P6SM BKN020CB OVC120 
     TEMPO 2120/2124 5SM TSRA
       
TAF MMEP 201625Z 2018/2118 33008KT P6SM BKN015 BKN250 
     BECMG 2101/2102 00000KT BKN010 OVC015 
     FM211100 00000KT 1SM DZ BR BKN004 OVC010 
     FM211430 27005KT 3SM BR OVC010 
     FM211530 30006KT 6SM HZ BKN015 BKN200
       
TAF AMD MMTC 202308Z 2023/2118 02015G25KT 4SM BLDU SCT030CB BKN080 BKN200 
     TEMPO 2100/2104 2SM TSRA BLDU OVC030CB 
     FM210400 02005KT 5SM HZ SCT020 BKN080 
     FM211700 03010KT P6SM SCT020 BKN250
       
TAF MMLM 201632Z 2018/2118 26010KT P6SM SKC 
     FM210300 30006KT P6SM SKC 
     FM211600 30012KT P6SM SKC
       
TAF MMOX 201615Z 2018/2118 13008KT P6SM BKN020 BKN080 BKN220 
     BECMG 2020/2021 BKN020CB 
     TEMPO 2022/2102 4SM TSRA OVC015CB 
     FM210500 00000KT 6SM HZ BKN015 OVC070 
     FM211500 14006KT P6SM BKN020 BKN080 BKN220